Stony Fork, North Carolina
Current Conditions -  °F | °C
As of 6:15 AM on Saturday 25 Oct 2014 (Local Time) from KTNB Reporting Station
Clear Clear  
Wind Chill: 41°   Ceiling: Unl
Heat Index: 46°   Visibility: 10mi
Dew Point: 35°   Wind: 8mph
Humidity: 66%   Direction: 280°W
Pressure: 30.08"   Gusts: NA
Location:  36.1935°N, 81.5276°W
Report Text: KTNB 251015Z AUTO 28007KT 10SM CLR 08/02 A3008 RMK AO2 T00760016
Loading
Personal Weather Stations






























Interactive Weather Map
Tropical Storm Tracking
New forecast layout! Learn more

10-Day Weather Forecast

Advertisements
Track Severe Weather on mobile